KILE

Skylark Field Airport

Killeen, Texas, USA
METAR KILE 202356Z AUTO 20007KT 10SM VCTS CLR 30/19 A2996 RMK AO2 WSHFT 2311 LTG DSNT E AND W TSB06E19B21E23B48 SLP148 T03000189 10367 20300 55000
Observed Flight Rules
Aug-20 @ 23:56 UTC (13 minutes ago) Visual Flight Rules
Wind Visibility Clouds Conditions
200° at 7 knots 10 miles
  • Clear skies
  • Area Thunderstorm
Temperatures Readings
Current 30°C / 86°F
Dewpoint 19°C / 66°F
Humidity 52%
Altimeter 29.96" Hg
Pressure 1014.8 hPa
Elevation 258
METAR KILE 202356Z AUTO 20007KT 10SM VCTS CLR 30/19 A2996 RMK AO2 WSHFT 2311 LTG DSNT E AND W TSB06E19B21E23B48 SLP148 T03000189 10367 20300 55000
Observed Flight Rules
Aug-20 @ 23:56 UTC
(13 minutes ago)
VFR
Wind Visibility
200° at 7 knots 10 miles
Clouds
  • Clear skies
Conditions
  • Area Thunderstorm
Temperature Dewpoint
30°C / 86°F 19°C / 66°F
Humidity Altimeter Pressure
52% 29.96" Hg 1014.8 hPa